sensor_id;sensor_type;location;lat;lon;timestamp;P1;durP1;ratioP1;P2;durP2;ratioP2
22947;SDS011;11640;52.520;13.456;2022-09-21T00:04:49;7.13;;;3.78;;
22947;SDS011;11640;52.520;13.456;2022-09-21T00:09:51;4.90;;;3.10;;
22947;SDS011;11640;52.520;13.456;2022-09-21T00:14:53;5.65;;;2.67;;
22947;SDS011;11640;52.520;13.456;2022-09-21T00:19:56;6.43;;;2.80;;
22947;SDS011;11640;52.520;13.456;2022-09-21T00:24:58;7.07;;;2.85;;
22947;SDS011;11640;52.520;13.456;2022-09-21T00:30:05;4.13;;;2.33;;
22947;SDS011;11640;52.520;13.456;2022-09-21T00:35:07;6.07;;;2.63;;
22947;SDS011;11640;52.520;13.456;2022-09-21T00:40:09;7.13;;;3.15;;
22947;SDS011;11640;52.520;13.456;2022-09-21T00:45:12;4.75;;;2.88;;
22947;SDS011;11640;52.520;13.456;2022-09-21T00:50:21;5.75;;;3.10;;
22947;SDS011;11640;52.520;13.456;2022-09-21T00:55:25;5.18;;;3.08;;
22947;SDS011;11640;52.520;13.456;2022-09-21T01:00:31;5.68;;;2.88;;
22947;SDS011;11640;52.520;13.456;2022-09-21T01:05:33;7.97;;;3.25;;
22947;SDS011;11640;52.520;13.456;2022-09-21T01:10:39;5.00;;;3.03;;
22947;SDS011;11640;52.520;13.456;2022-09-21T01:16:02;8.40;;;3.80;;
22947;SDS011;11640;52.520;13.456;2022-09-21T01:26:28;5.50;;;3.05;;
22947;SDS011;11640;52.520;13.456;2022-09-21T01:31:36;4.80;;;3.10;;
22947;SDS011;11640;52.520;13.456;2022-09-21T01:37:04;6.95;;;3.53;;
22947;SDS011;11640;52.520;13.456;2022-09-21T01:42:09;6.90;;;3.38;;
22947;SDS011;11640;52.520;13.456;2022-09-21T01:47:13;5.85;;;3.60;;
22947;SDS011;11640;52.520;13.456;2022-09-21T01:52:22;6.88;;;3.80;;
22947;SDS011;11640;52.520;13.456;2022-09-21T02:07:39;6.57;;;3.00;;
22947;SDS011;11640;52.520;13.456;2022-09-21T02:12:42;5.47;;;3.08;;
22947;SDS011;11640;52.520;13.456;2022-09-21T02:17:50;6.63;;;3.25;;
22947;SDS011;11640;52.520;13.456;2022-09-21T02:33:36;7.65;;;3.47;;
22947;SDS011;11640;52.520;13.456;2022-09-21T02:39:02;10.77;;;4.28;;
22947;SDS011;11640;52.520;13.456;2022-09-21T02:44:11;7.95;;;4.70;;
22947;SDS011;11640;52.520;13.456;2022-09-21T02:54:56;10.73;;;4.93;;
22947;SDS011;11640;52.520;13.456;2022-09-21T02:59:58;11.68;;;5.50;;
22947;SDS011;11640;52.520;13.456;2022-09-21T03:05:00;11.43;;;5.78;;
22947;SDS011;11640;52.520;13.456;2022-09-21T03:10:02;12.88;;;7.38;;
22947;SDS011;11640;52.520;13.456;2022-09-21T03:15:05;12.68;;;6.57;;
22947;SDS011;11640;52.520;13.456;2022-09-21T03:20:07;13.07;;;6.05;;
22947;SDS011;11640;52.520;13.456;2022-09-21T03:25:08;9.85;;;5.22;;
22947;SDS011;11640;52.520;13.456;2022-09-21T03:30:12;10.68;;;5.93;;
22947;SDS011;11640;52.520;13.456;2022-09-21T03:35:14;11.25;;;6.40;;
22947;SDS011;11640;52.520;13.456;2022-09-21T03:40:17;8.50;;;5.00;;
22947;SDS011;11640;52.520;13.456;2022-09-21T03:45:20;7.97;;;4.70;;
22947;SDS011;11640;52.520;13.456;2022-09-21T03:50:27;8.45;;;4.85;;
22947;SDS011;11640;52.520;13.456;2022-09-21T03:55:29;8.63;;;4.65;;
22947;SDS011;11640;52.520;13.456;2022-09-21T04:00:31;8.23;;;4.47;;
22947;SDS011;11640;52.520;13.456;2022-09-21T04:05:33;8.60;;;4.00;;
22947;SDS011;11640;52.520;13.456;2022-09-21T04:10:35;8.30;;;4.22;;
22947;SDS011;11640;52.520;13.456;2022-09-21T04:15:41;6.60;;;4.60;;
22947;SDS011;11640;52.520;13.456;2022-09-21T04:20:43;8.27;;;4.88;;
22947;SDS011;11640;52.520;13.456;2022-09-21T04:25:46;9.15;;;5.32;;
22947;SDS011;11640;52.520;13.456;2022-09-21T04:30:52;7.38;;;4.30;;
22947;SDS011;11640;52.520;13.456;2022-09-21T04:35:55;8.82;;;5.03;;
22947;SDS011;11640;52.520;13.456;2022-09-21T04:40:57;11.10;;;6.03;;
22947;SDS011;11640;52.520;13.456;2022-09-21T04:46:03;10.23;;;5.45;;
22947;SDS011;11640;52.520;13.456;2022-09-21T04:51:07;10.90;;;5.95;;
22947;SDS011;11640;52.520;13.456;2022-09-21T04:56:09;8.38;;;5.55;;
22947;SDS011;11640;52.520;13.456;2022-09-21T05:01:16;11.40;;;5.80;;
22947;SDS011;11640;52.520;13.456;2022-09-21T05:06:18;10.35;;;5.05;;
22947;SDS011;11640;52.520;13.456;2022-09-21T05:11:19;9.80;;;5.70;;
22947;SDS011;11640;52.520;13.456;2022-09-21T05:16:21;9.05;;;5.28;;
22947;SDS011;11640;52.520;13.456;2022-09-21T05:21:23;9.40;;;5.43;;
22947;SDS011;11640;52.520;13.456;2022-09-21T05:26:25;8.43;;;5.00;;
22947;SDS011;11640;52.520;13.456;2022-09-21T05:31:31;11.13;;;5.80;;
22947;SDS011;11640;52.520;13.456;2022-09-21T05:36:45;8.43;;;5.07;;
22947;SDS011;11640;52.520;13.456;2022-09-21T05:41:49;8.90;;;5.78;;
22947;SDS011;11640;52.520;13.456;2022-09-21T05:46:57;9.90;;;5.47;;
22947;SDS011;11640;52.520;13.456;2022-09-21T05:57:39;10.57;;;5.57;;
22947;SDS011;11640;52.520;13.456;2022-09-21T06:02:54;8.70;;;5.15;;
22947;SDS011;11640;52.520;13.456;2022-09-21T06:07:59;9.95;;;5.32;;
22947;SDS011;11640;52.520;13.456;2022-09-21T06:13:01;9.48;;;5.40;;
22947;SDS011;11640;52.520;13.456;2022-09-21T06:18:03;10.30;;;5.45;;
22947;SDS011;11640;52.520;13.456;2022-09-21T06:23:06;10.23;;;5.47;;
22947;SDS011;11640;52.520;13.456;2022-09-21T06:28:10;9.68;;;5.85;;
22947;SDS011;11640;52.520;13.456;2022-09-21T06:33:13;7.22;;;5.45;;
22947;SDS011;11640;52.520;13.456;2022-09-21T06:38:21;12.23;;;6.18;;
22947;SDS011;11640;52.520;13.456;2022-09-21T06:43:23;11.13;;;5.80;;
22947;SDS011;11640;52.520;13.456;2022-09-21T06:48:25;8.85;;;5.75;;
22947;SDS011;11640;52.520;13.456;2022-09-21T06:53:29;10.73;;;5.50;;
22947;SDS011;11640;52.520;13.456;2022-09-21T06:58:33;10.57;;;5.85;;
22947;SDS011;11640;52.520;13.456;2022-09-21T07:03:35;9.88;;;5.53;;
22947;SDS011;11640;52.520;13.456;2022-09-21T07:08:38;14.63;;;7.07;;
22947;SDS011;11640;52.520;13.456;2022-09-21T07:14:00;12.43;;;5.90;;
22947;SDS011;11640;52.520;13.456;2022-09-21T07:19:02;10.23;;;5.90;;
22947;SDS011;11640;52.520;13.456;2022-09-21T07:24:11;14.82;;;7.40;;
22947;SDS011;11640;52.520;13.456;2022-09-21T07:29:15;10.45;;;5.63;;
22947;SDS011;11640;52.520;13.456;2022-09-21T07:34:16;9.32;;;5.82;;
22947;SDS011;11640;52.520;13.456;2022-09-21T07:39:18;10.30;;;5.95;;
22947;SDS011;11640;52.520;13.456;2022-09-21T07:44:20;9.27;;;5.90;;
22947;SDS011;11640;52.520;13.456;2022-09-21T07:49:22;10.38;;;5.93;;
22947;SDS011;11640;52.520;13.456;2022-09-21T07:54:24;9.32;;;5.50;;
22947;SDS011;11640;52.520;13.456;2022-09-21T07:59:26;12.00;;;5.85;;
22947;SDS011;11640;52.520;13.456;2022-09-21T08:04:28;9.40;;;5.38;;
22947;SDS011;11640;52.520;13.456;2022-09-21T08:09:30;10.00;;;5.20;;
22947;SDS011;11640;52.520;13.456;2022-09-21T08:14:32;9.93;;;5.43;;
22947;SDS011;11640;52.520;13.456;2022-09-21T08:19:34;12.18;;;5.57;;
22947;SDS011;11640;52.520;13.456;2022-09-21T08:24:36;8.18;;;4.93;;
22947;SDS011;11640;52.520;13.456;2022-09-21T08:29:39;8.75;;;4.85;;
22947;SDS011;11640;52.520;13.456;2022-09-21T08:34:40;8.32;;;4.57;;
22947;SDS011;11640;52.520;13.456;2022-09-21T08:39:42;7.82;;;4.53;;
22947;SDS011;11640;52.520;13.456;2022-09-21T08:44:48;7.95;;;4.32;;
22947;SDS011;11640;52.520;13.456;2022-09-21T08:49:57;8.63;;;4.53;;
22947;SDS011;11640;52.520;13.456;2022-09-21T08:55:05;7.88;;;3.95;;
22947;SDS011;11640;52.520;13.456;2022-09-21T09:00:18;7.13;;;4.28;;
22947;SDS011;11640;52.520;13.456;2022-09-21T09:10:38;7.28;;;4.35;;
22947;SDS011;11640;52.520;13.456;2022-09-21T09:21:10;7.57;;;4.05;;
22947;SDS011;11640;52.520;13.456;2022-09-21T09:26:36;7.80;;;4.20;;
22947;SDS011;11640;52.520;13.456;2022-09-21T09:31:46;8.02;;;4.47;;
22947;SDS011;11640;52.520;13.456;2022-09-21T09:36:51;7.07;;;3.90;;
22947;SDS011;11640;52.520;13.456;2022-09-21T09:42:12;5.50;;;3.42;;
22947;SDS011;11640;52.520;13.456;2022-09-21T09:47:32;6.47;;;3.78;;
22947;SDS011;11640;52.520;13.456;2022-09-21T09:53:11;6.40;;;3.40;;
22947;SDS011;11640;52.520;13.456;2022-09-21T09:58:23;5.95;;;2.50;;
22947;SDS011;11640;52.520;13.456;2022-09-21T10:03:26;6.85;;;2.72;;
22947;SDS011;11640;52.520;13.456;2022-09-21T10:08:44;3.83;;;2.00;;
22947;SDS011;11640;52.520;13.456;2022-09-21T10:13:47;6.03;;;3.00;;
22947;SDS011;11640;52.520;13.456;2022-09-21T10:18:53;5.47;;;2.30;;
22947;SDS011;11640;52.520;13.456;2022-09-21T10:34:18;4.78;;;2.10;;
22947;SDS011;11640;52.520;13.456;2022-09-21T10:44:26;4.85;;;1.65;;
22947;SDS011;11640;52.520;13.456;2022-09-21T10:49:42;3.42;;;1.38;;
22947;SDS011;11640;52.520;13.456;2022-09-21T10:54:47;3.97;;;1.55;;
22947;SDS011;11640;52.520;13.456;2022-09-21T10:59:52;4.30;;;1.30;;
22947;SDS011;11640;52.520;13.456;2022-09-21T11:04:58;2.45;;;1.17;;
22947;SDS011;11640;52.520;13.456;2022-09-21T11:10:25;4.22;;;1.20;;
22947;SDS011;11640;52.520;13.456;2022-09-21T11:20:54;2.95;;;1.10;;
22947;SDS011;11640;52.520;13.456;2022-09-21T11:26:07;2.70;;;0.90;;
22947;SDS011;11640;52.520;13.456;2022-09-21T11:37:11;1.67;;;0.80;;
22947;SDS011;11640;52.520;13.456;2022-09-21T11:42:34;2.20;;;1.10;;
22947;SDS011;11640;52.520;13.456;2022-09-21T11:53:02;2.85;;;0.93;;
22947;SDS011;11640;52.520;13.456;2022-09-21T11:58:30;2.03;;;1.00;;
22947;SDS011;11640;52.520;13.456;2022-09-21T12:20:50;4.03;;;0.98;;
22947;SDS011;11640;52.520;13.456;2022-09-21T12:26:06;1.95;;;0.60;;
22947;SDS011;11640;52.520;13.456;2022-09-21T12:31:18;1.55;;;0.77;;
22947;SDS011;11640;52.520;13.456;2022-09-21T12:42:12;1.93;;;0.67;;
22947;SDS011;11640;52.520;13.456;2022-09-21T12:52:34;3.47;;;1.10;;
22947;SDS011;11640;52.520;13.456;2022-09-21T13:03:26;2.13;;;0.90;;
22947;SDS011;11640;52.520;13.456;2022-09-21T13:08:45;2.53;;;1.00;;
22947;SDS011;11640;52.520;13.456;2022-09-21T13:13:55;2.92;;;1.30;;
22947;SDS011;11640;52.520;13.456;2022-09-21T13:24:26;2.35;;;0.88;;
22947;SDS011;11640;52.520;13.456;2022-09-21T13:29:31;1.90;;;0.70;;
22947;SDS011;11640;52.520;13.456;2022-09-21T13:34:35;2.95;;;1.02;;
22947;SDS011;11640;52.520;13.456;2022-09-21T13:39:42;2.47;;;0.90;;
22947;SDS011;11640;52.520;13.456;2022-09-21T13:50:26;4.85;;;1.50;;
22947;SDS011;11640;52.520;13.456;2022-09-21T13:55:36;3.03;;;1.58;;
22947;SDS011;11640;52.520;13.456;2022-09-21T14:00:40;2.95;;;1.40;;
22947;SDS011;11640;52.520;13.456;2022-09-21T14:05:53;3.13;;;1.30;;
22947;SDS011;11640;52.520;13.456;2022-09-21T14:11:06;2.60;;;1.10;;
22947;SDS011;11640;52.520;13.456;2022-09-21T14:27:19;1.92;;;0.80;;
22947;SDS011;11640;52.520;13.456;2022-09-21T14:32:29;3.05;;;1.00;;
22947;SDS011;11640;52.520;13.456;2022-09-21T14:37:45;1.77;;;0.90;;
22947;SDS011;11640;52.520;13.456;2022-09-21T14:42:52;1.88;;;0.90;;
22947;SDS011;11640;52.520;13.456;2022-09-21T14:59:31;1.88;;;0.80;;
22947;SDS011;11640;52.520;13.456;2022-09-21T15:10:09;1.60;;;0.73;;
22947;SDS011;11640;52.520;13.456;2022-09-21T15:21:24;2.45;;;1.00;;
22947;SDS011;11640;52.520;13.456;2022-09-21T15:26:31;1.85;;;0.73;;
22947;SDS011;11640;52.520;13.456;2022-09-21T15:31:36;2.25;;;0.82;;
22947;SDS011;11640;52.520;13.456;2022-09-21T15:36:40;3.10;;;1.00;;
22947;SDS011;11640;52.520;13.456;2022-09-21T15:41:43;4.28;;;1.10;;
22947;SDS011;11640;52.520;13.456;2022-09-21T15:46:49;2.85;;;0.98;;
22947;SDS011;11640;52.520;13.456;2022-09-21T15:51:57;3.45;;;0.70;;
22947;SDS011;11640;52.520;13.456;2022-09-21T16:02:25;1.48;;;0.70;;
22947;SDS011;11640;52.520;13.456;2022-09-21T16:07:35;3.55;;;1.40;;
22947;SDS011;11640;52.520;13.456;2022-09-21T16:12:41;2.92;;;1.30;;
22947;SDS011;11640;52.520;13.456;2022-09-21T16:18:00;3.83;;;1.38;;
22947;SDS011;11640;52.520;13.456;2022-09-21T16:23:04;2.97;;;1.25;;
22947;SDS011;11640;52.520;13.456;2022-09-21T16:38:44;3.60;;;0.93;;
22947;SDS011;11640;52.520;13.456;2022-09-21T16:43:47;3.20;;;1.02;;
22947;SDS011;11640;52.520;13.456;2022-09-21T16:48:51;3.38;;;1.65;;
22947;SDS011;11640;52.520;13.456;2022-09-21T16:53:55;3.25;;;1.20;;
22947;SDS011;11640;52.520;13.456;2022-09-21T16:58:56;4.00;;;1.88;;
22947;SDS011;11640;52.520;13.456;2022-09-21T17:04:03;5.75;;;2.08;;
22947;SDS011;11640;52.520;13.456;2022-09-21T17:09:18;3.30;;;1.40;;
22947;SDS011;11640;52.520;13.456;2022-09-21T17:14:29;5.55;;;2.33;;
22947;SDS011;11640;52.520;13.456;2022-09-21T17:19:35;7.07;;;2.67;;
22947;SDS011;11640;52.520;13.456;2022-09-21T17:24:37;14.00;;;8.98;;
22947;SDS011;11640;52.520;13.456;2022-09-21T17:29:51;6.13;;;3.00;;
22947;SDS011;11640;52.520;13.456;2022-09-21T17:35:30;7.78;;;4.32;;
22947;SDS011;11640;52.520;13.456;2022-09-21T17:40:31;8.68;;;4.60;;
22947;SDS011;11640;52.520;13.456;2022-09-21T17:51:10;5.35;;;3.05;;
22947;SDS011;11640;52.520;13.456;2022-09-21T18:01:40;7.22;;;3.70;;
22947;SDS011;11640;52.520;13.456;2022-09-21T18:06:42;6.93;;;3.85;;
22947;SDS011;11640;52.520;13.456;2022-09-21T18:23:17;8.18;;;4.70;;
22947;SDS011;11640;52.520;13.456;2022-09-21T18:28:39;8.82;;;4.63;;
22947;SDS011;11640;52.520;13.456;2022-09-21T18:33:50;6.30;;;4.07;;
22947;SDS011;11640;52.520;13.456;2022-09-21T18:44:25;7.13;;;3.97;;
22947;SDS011;11640;52.520;13.456;2022-09-21T18:49:55;6.88;;;4.28;;
22947;SDS011;11640;52.520;13.456;2022-09-21T18:55:22;7.22;;;4.50;;
22947;SDS011;11640;52.520;13.456;2022-09-21T19:00:29;7.25;;;4.28;;
22947;SDS011;11640;52.520;13.456;2022-09-21T19:05:31;6.75;;;4.20;;
22947;SDS011;11640;52.520;13.456;2022-09-21T19:10:35;4.68;;;2.50;;
22947;SDS011;11640;52.520;13.456;2022-09-21T19:15:55;4.35;;;2.47;;
22947;SDS011;11640;52.520;13.456;2022-09-21T19:21:15;6.72;;;2.70;;
22947;SDS011;11640;52.520;13.456;2022-09-21T19:26:55;4.90;;;2.90;;
22947;SDS011;11640;52.520;13.456;2022-09-21T19:32:28;9.05;;;4.13;;
22947;SDS011;11640;52.520;13.456;2022-09-21T19:37:31;6.28;;;3.70;;
22947;SDS011;11640;52.520;13.456;2022-09-21T19:47:57;13.93;;;5.13;;
22947;SDS011;11640;52.520;13.456;2022-09-21T19:53:05;7.00;;;4.70;;
22947;SDS011;11640;52.520;13.456;2022-09-21T19:58:25;6.55;;;4.40;;
22947;SDS011;11640;52.520;13.456;2022-09-21T20:03:46;7.97;;;4.88;;
22947;SDS011;11640;52.520;13.456;2022-09-21T20:25:03;7.00;;;4.50;;
22947;SDS011;11640;52.520;13.456;2022-09-21T20:30:18;8.23;;;5.10;;
22947;SDS011;11640;52.520;13.456;2022-09-21T20:35:23;9.10;;;4.75;;
22947;SDS011;11640;52.520;13.456;2022-09-21T20:40:27;8.75;;;5.45;;
22947;SDS011;11640;52.520;13.456;2022-09-21T20:45:29;9.65;;;5.55;;
22947;SDS011;11640;52.520;13.456;2022-09-21T20:50:33;7.60;;;5.38;;
22947;SDS011;11640;52.520;13.456;2022-09-21T20:55:35;9.80;;;6.10;;
22947;SDS011;11640;52.520;13.456;2022-09-21T21:00:37;9.38;;;5.72;;
22947;SDS011;11640;52.520;13.456;2022-09-21T21:05:39;8.48;;;5.32;;
22947;SDS011;11640;52.520;13.456;2022-09-21T21:10:44;10.50;;;5.78;;
22947;SDS011;11640;52.520;13.456;2022-09-21T21:15:51;8.18;;;5.85;;
22947;SDS011;11640;52.520;13.456;2022-09-21T21:20:53;9.68;;;6.03;;
22947;SDS011;11640;52.520;13.456;2022-09-21T21:25:55;11.85;;;8.50;;
22947;SDS011;11640;52.520;13.456;2022-09-21T21:30:59;8.30;;;5.65;;
22947;SDS011;11640;52.520;13.456;2022-09-21T21:36:04;10.15;;;5.32;;
22947;SDS011;11640;52.520;13.456;2022-09-21T21:41:07;8.38;;;5.07;;
22947;SDS011;11640;52.520;13.456;2022-09-21T21:46:12;8.02;;;5.03;;
22947;SDS011;11640;52.520;13.456;2022-09-21T21:51:14;7.55;;;4.70;;
22947;SDS011;11640;52.520;13.456;2022-09-21T21:56:16;8.18;;;5.40;;
22947;SDS011;11640;52.520;13.456;2022-09-21T22:01:21;9.93;;;5.57;;
22947;SDS011;11640;52.520;13.456;2022-09-21T22:06:25;8.73;;;5.10;;
22947;SDS011;11640;52.520;13.456;2022-09-21T22:11:28;9.05;;;5.20;;
22947;SDS011;11640;52.520;13.456;2022-09-21T22:16:31;7.80;;;5.10;;
22947;SDS011;11640;52.520;13.456;2022-09-21T22:21:43;12.20;;;5.00;;
22947;SDS011;11640;52.520;13.456;2022-09-21T22:26:54;7.20;;;4.47;;
22947;SDS011;11640;52.520;13.456;2022-09-21T22:31:55;6.88;;;4.30;;
22947;SDS011;11640;52.520;13.456;2022-09-21T22:36:58;7.13;;;4.15;;
22947;SDS011;11640;52.520;13.456;2022-09-21T22:42:00;8.02;;;4.82;;
22947;SDS011;11640;52.520;13.456;2022-09-21T22:47:03;9.50;;;4.15;;
22947;SDS011;11640;52.520;13.456;2022-09-21T22:52:05;6.70;;;4.15;;
22947;SDS011;11640;52.520;13.456;2022-09-21T22:57:07;6.15;;;3.30;;
22947;SDS011;11640;52.520;13.456;2022-09-21T23:02:09;6.30;;;3.58;;
22947;SDS011;11640;52.520;13.456;2022-09-21T23:07:11;5.93;;;3.60;;
22947;SDS011;11640;52.520;13.456;2022-09-21T23:12:16;5.55;;;3.55;;
22947;SDS011;11640;52.520;13.456;2022-09-21T23:17:18;7.57;;;3.83;;
22947;SDS011;11640;52.520;13.456;2022-09-21T23:22:20;9.52;;;4.05;;
22947;SDS011;11640;52.520;13.456;2022-09-21T23:27:21;7.35;;;4.07;;
22947;SDS011;11640;52.520;13.456;2022-09-21T23:32:23;5.97;;;3.42;;
22947;SDS011;11640;52.520;13.456;2022-09-21T23:37:27;7.10;;;3.70;;
22947;SDS011;11640;52.520;13.456;2022-09-21T23:42:28;5.93;;;3.35;;
22947;SDS011;11640;52.520;13.456;2022-09-21T23:47:30;7.18;;;3.70;;
22947;SDS011;11640;52.520;13.456;2022-09-21T23:52:32;5.80;;;3.72;;
22947;SDS011;11640;52.520;13.456;2022-09-21T23:57:34;5.93;;;3.65;;
